sensor_id;sensor_type;location;lat;lon;timestamp;temperature;humidity
1614;DHT22;800;48.824;9.346;2023-09-19T00:00:23;22.80;62.00
1614;DHT22;800;48.824;9.346;2023-09-19T00:02:55;22.90;61.60
1614;DHT22;800;48.824;9.346;2023-09-19T00:05:28;23.10;61.50
1614;DHT22;800;48.824;9.346;2023-09-19T00:07:56;23.10;61.30
1614;DHT22;800;48.824;9.346;2023-09-19T00:10:25;23.10;61.00
1614;DHT22;800;48.824;9.346;2023-09-19T00:12:52;23.10;60.90
1614;DHT22;800;48.824;9.346;2023-09-19T00:15:21;23.00;60.90
1614;DHT22;800;48.824;9.346;2023-09-19T00:17:46;22.90;61.50
1614;DHT22;800;48.824;9.346;2023-09-19T00:20:14;23.10;61.20
1614;DHT22;800;48.824;9.346;2023-09-19T00:22:43;23.10;61.00
1614;DHT22;800;48.824;9.346;2023-09-19T00:25:09;22.90;61.50
1614;DHT22;800;48.824;9.346;2023-09-19T00:27:40;22.60;62.50
1614;DHT22;800;48.824;9.346;2023-09-19T00:30:09;22.40;63.20
1614;DHT22;800;48.824;9.346;2023-09-19T00:32:50;22.30;64.00
1614;DHT22;800;48.824;9.346;2023-09-19T00:35:20;22.50;63.70
1614;DHT22;800;48.824;9.346;2023-09-19T00:37:45;22.40;63.80
1614;DHT22;800;48.824;9.346;2023-09-19T00:40:11;22.40;63.90
1614;DHT22;800;48.824;9.346;2023-09-19T00:42:38;22.40;64.10
1614;DHT22;800;48.824;9.346;2023-09-19T00:45:05;22.30;65.00
1614;DHT22;800;48.824;9.346;2023-09-19T00:47:31;22.20;64.40
1614;DHT22;800;48.824;9.346;2023-09-19T00:49:57;22.20;64.40
1614;DHT22;800;48.824;9.346;2023-09-19T00:52:24;22.20;64.10
1614;DHT22;800;48.824;9.346;2023-09-19T00:54:50;22.20;64.30
1614;DHT22;800;48.824;9.346;2023-09-19T00:57:16;22.30;63.90
1614;DHT22;800;48.824;9.346;2023-09-19T00:59:43;22.20;64.10
1614;DHT22;800;48.824;9.346;2023-09-19T01:02:09;22.20;64.10
1614;DHT22;800;48.824;9.346;2023-09-19T01:04:34;22.40;63.90
1614;DHT22;800;48.824;9.346;2023-09-19T01:07:00;22.60;63.30
1614;DHT22;800;48.824;9.346;2023-09-19T01:09:26;22.50;63.10
1614;DHT22;800;48.824;9.346;2023-09-19T01:11:53;22.50;63.00
1614;DHT22;800;48.824;9.346;2023-09-19T01:14:49;22.40;63.20
1614;DHT22;800;48.824;9.346;2023-09-19T01:17:27;22.30;63.10
1614;DHT22;800;48.824;9.346;2023-09-19T01:20:21;22.20;63.60
1614;DHT22;800;48.824;9.346;2023-09-19T01:23:05;22.00;64.00
1614;DHT22;800;48.824;9.346;2023-09-19T01:30:43;22.20;63.40
1614;DHT22;800;48.824;9.346;2023-09-19T01:33:09;22.10;63.70
1614;DHT22;800;48.824;9.346;2023-09-19T01:35:38;22.20;63.30
1614;DHT22;800;48.824;9.346;2023-09-19T01:38:05;22.10;63.10
1614;DHT22;800;48.824;9.346;2023-09-19T01:40:39;22.20;62.90
1614;DHT22;800;48.824;9.346;2023-09-19T01:46:03;22.20;63.00
1614;DHT22;800;48.824;9.346;2023-09-19T01:51:05;22.10;63.00
1614;DHT22;800;48.824;9.346;2023-09-19T01:56:22;22.30;62.60
1614;DHT22;800;48.824;9.346;2023-09-19T01:58:50;22.20;63.20
1614;DHT22;800;48.824;9.346;2023-09-19T02:01:20;22.20;62.70
1614;DHT22;800;48.824;9.346;2023-09-19T02:03:48;21.90;63.30
1614;DHT22;800;48.824;9.346;2023-09-19T02:06:15;21.90;63.10
1614;DHT22;800;48.824;9.346;2023-09-19T02:08:42;22.00;63.00
1614;DHT22;800;48.824;9.346;2023-09-19T02:11:08;21.90;63.30
1614;DHT22;800;48.824;9.346;2023-09-19T02:13:34;22.00;62.80
1614;DHT22;800;48.824;9.346;2023-09-19T02:16:00;22.00;62.80
1614;DHT22;800;48.824;9.346;2023-09-19T02:18:25;22.00;62.60
1614;DHT22;800;48.824;9.346;2023-09-19T02:20:53;22.20;62.00
1614;DHT22;800;48.824;9.346;2023-09-19T02:23:20;22.00;62.10
1614;DHT22;800;48.824;9.346;2023-09-19T02:25:56;22.00;62.50
1614;DHT22;800;48.824;9.346;2023-09-19T02:28:24;22.00;62.10
1614;DHT22;800;48.824;9.346;2023-09-19T02:30:49;22.10;62.40
1614;DHT22;800;48.824;9.346;2023-09-19T02:33:16;22.10;61.90
1614;DHT22;800;48.824;9.346;2023-09-19T02:35:42;22.10;61.80
1614;DHT22;800;48.824;9.346;2023-09-19T02:38:08;22.20;61.80
1614;DHT22;800;48.824;9.346;2023-09-19T02:40:37;22.20;61.60
1614;DHT22;800;48.824;9.346;2023-09-19T02:43:02;22.30;61.60
1614;DHT22;800;48.824;9.346;2023-09-19T02:45:28;22.40;61.30
1614;DHT22;800;48.824;9.346;2023-09-19T02:47:55;22.50;60.90
1614;DHT22;800;48.824;9.346;2023-09-19T02:50:21;22.60;60.60
1614;DHT22;800;48.824;9.346;2023-09-19T02:52:47;22.50;60.60
1614;DHT22;800;48.824;9.346;2023-09-19T02:55:17;22.60;60.50
1614;DHT22;800;48.824;9.346;2023-09-19T02:57:52;22.50;60.80
1614;DHT22;800;48.824;9.346;2023-09-19T03:00:19;22.50;60.60
1614;DHT22;800;48.824;9.346;2023-09-19T03:02:49;22.40;60.70
1614;DHT22;800;48.824;9.346;2023-09-19T03:05:14;22.40;60.90
1614;DHT22;800;48.824;9.346;2023-09-19T03:07:40;22.40;61.10
1614;DHT22;800;48.824;9.346;2023-09-19T03:10:08;22.40;61.10
1614;DHT22;800;48.824;9.346;2023-09-19T03:12:34;22.40;61.40
1614;DHT22;800;48.824;9.346;2023-09-19T03:15:00;22.30;61.20
1614;DHT22;800;48.824;9.346;2023-09-19T03:17:26;22.40;60.90
1614;DHT22;800;48.824;9.346;2023-09-19T03:19:52;22.30;61.10
1614;DHT22;800;48.824;9.346;2023-09-19T03:22:19;22.30;61.30
1614;DHT22;800;48.824;9.346;2023-09-19T03:24:45;22.50;61.30
1614;DHT22;800;48.824;9.346;2023-09-19T03:27:12;22.70;60.90
1614;DHT22;800;48.824;9.346;2023-09-19T03:29:42;22.70;60.50
1614;DHT22;800;48.824;9.346;2023-09-19T03:32:07;22.80;60.60
1614;DHT22;800;48.824;9.346;2023-09-19T03:34:36;23.00;60.50
1614;DHT22;800;48.824;9.346;2023-09-19T03:37:03;23.10;60.30
1614;DHT22;800;48.824;9.346;2023-09-19T03:39:29;23.20;60.30
1614;DHT22;800;48.824;9.346;2023-09-19T03:41:55;23.40;60.20
1614;DHT22;800;48.824;9.346;2023-09-19T03:44:20;23.40;59.10
1614;DHT22;800;48.824;9.346;2023-09-19T03:46:46;23.50;59.20
1614;DHT22;800;48.824;9.346;2023-09-19T03:49:12;23.50;59.20
1614;DHT22;800;48.824;9.346;2023-09-19T03:51:37;23.60;59.30
1614;DHT22;800;48.824;9.346;2023-09-19T03:54:03;23.60;58.80
1614;DHT22;800;48.824;9.346;2023-09-19T03:56:29;23.60;59.00
1614;DHT22;800;48.824;9.346;2023-09-19T03:58:55;23.60;58.90
1614;DHT22;800;48.824;9.346;2023-09-19T04:01:20;23.40;58.70
1614;DHT22;800;48.824;9.346;2023-09-19T04:03:46;23.10;58.70
1614;DHT22;800;48.824;9.346;2023-09-19T04:06:14;23.00;59.20
1614;DHT22;800;48.824;9.346;2023-09-19T04:08:39;23.10;59.30
1614;DHT22;800;48.824;9.346;2023-09-19T04:11:05;23.20;59.10
1614;DHT22;800;48.824;9.346;2023-09-19T04:13:31;23.20;58.90
1614;DHT22;800;48.824;9.346;2023-09-19T04:15:56;23.20;59.00
1614;DHT22;800;48.824;9.346;2023-09-19T04:18:22;23.20;59.00
1614;DHT22;800;48.824;9.346;2023-09-19T04:20:52;23.00;59.30
1614;DHT22;800;48.824;9.346;2023-09-19T04:23:18;22.90;60.20
1614;DHT22;800;48.824;9.346;2023-09-19T04:25:46;22.90;60.80
1614;DHT22;800;48.824;9.346;2023-09-19T04:28:11;23.00;60.70
1614;DHT22;800;48.824;9.346;2023-09-19T04:30:38;23.10;60.60
1614;DHT22;800;48.824;9.346;2023-09-19T04:33:06;23.30;60.70
1614;DHT22;800;48.824;9.346;2023-09-19T04:35:32;23.40;60.70
1614;DHT22;800;48.824;9.346;2023-09-19T04:37:57;23.60;60.70
1614;DHT22;800;48.824;9.346;2023-09-19T04:40:23;23.70;60.20
1614;DHT22;800;48.824;9.346;2023-09-19T04:42:56;23.90;60.10
1614;DHT22;800;48.824;9.346;2023-09-19T04:45:22;24.00;59.90
1614;DHT22;800;48.824;9.346;2023-09-19T04:47:48;24.00;59.80
1614;DHT22;800;48.824;9.346;2023-09-19T04:50:13;24.10;59.30
1614;DHT22;800;48.824;9.346;2023-09-19T04:52:40;24.20;59.10
1614;DHT22;800;48.824;9.346;2023-09-19T04:55:09;24.20;59.30
1614;DHT22;800;48.824;9.346;2023-09-19T04:57:35;24.20;59.20
1614;DHT22;800;48.824;9.346;2023-09-19T05:00:02;24.20;59.00
1614;DHT22;800;48.824;9.346;2023-09-19T05:02:32;24.30;59.00
1614;DHT22;800;48.824;9.346;2023-09-19T05:05:00;24.20;59.10
1614;DHT22;800;48.824;9.346;2023-09-19T05:07:25;24.20;59.40
1614;DHT22;800;48.824;9.346;2023-09-19T05:09:51;24.30;59.40
1614;DHT22;800;48.824;9.346;2023-09-19T05:12:17;24.30;59.20
1614;DHT22;800;48.824;9.346;2023-09-19T05:14:45;24.40;59.30
1614;DHT22;800;48.824;9.346;2023-09-19T05:17:10;24.40;58.90
1614;DHT22;800;48.824;9.346;2023-09-19T05:19:36;24.30;58.60
1614;DHT22;800;48.824;9.346;2023-09-19T05:22:04;24.30;58.60
1614;DHT22;800;48.824;9.346;2023-09-19T05:24:30;24.20;59.10
1614;DHT22;800;48.824;9.346;2023-09-19T05:26:56;23.80;59.90
1614;DHT22;800;48.824;9.346;2023-09-19T05:29:22;23.60;61.10
1614;DHT22;800;48.824;9.346;2023-09-19T05:31:48;23.40;61.90
1614;DHT22;800;48.824;9.346;2023-09-19T05:34:15;23.40;61.90
1614;DHT22;800;48.824;9.346;2023-09-19T05:36:40;23.50;62.40
1614;DHT22;800;48.824;9.346;2023-09-19T05:39:07;23.40;62.70
1614;DHT22;800;48.824;9.346;2023-09-19T05:41:35;23.30;62.70
1614;DHT22;800;48.824;9.346;2023-09-19T05:44:02;23.30;63.20
1614;DHT22;800;48.824;9.346;2023-09-19T05:46:28;23.30;63.60
1614;DHT22;800;48.824;9.346;2023-09-19T05:48:55;23.20;64.20
1614;DHT22;800;48.824;9.346;2023-09-19T05:51:24;23.00;64.70
1614;DHT22;800;48.824;9.346;2023-09-19T05:53:50;22.90;65.40
1614;DHT22;800;48.824;9.346;2023-09-19T05:56:16;22.90;65.60
1614;DHT22;800;48.824;9.346;2023-09-19T05:58:44;22.70;66.20
1614;DHT22;800;48.824;9.346;2023-09-19T06:01:10;22.60;67.20
1614;DHT22;800;48.824;9.346;2023-09-19T06:03:35;22.50;67.70
1614;DHT22;800;48.824;9.346;2023-09-19T06:06:01;22.50;67.80
1614;DHT22;800;48.824;9.346;2023-09-19T06:08:27;22.50;68.10
1614;DHT22;800;48.824;9.346;2023-09-19T06:10:54;22.50;68.00
1614;DHT22;800;48.824;9.346;2023-09-19T06:13:19;22.10;67.80
1614;DHT22;800;48.824;9.346;2023-09-19T06:15:45;21.80;67.60
1614;DHT22;800;48.824;9.346;2023-09-19T06:18:12;21.40;68.50
1614;DHT22;800;48.824;9.346;2023-09-19T06:20:48;21.30;68.70
1614;DHT22;800;48.824;9.346;2023-09-19T06:23:16;21.20;67.40
1614;DHT22;800;48.824;9.346;2023-09-19T06:25:42;21.00;66.30
1614;DHT22;800;48.824;9.346;2023-09-19T06:28:11;20.70;65.20
1614;DHT22;800;48.824;9.346;2023-09-19T06:30:40;20.60;64.70
1614;DHT22;800;48.824;9.346;2023-09-19T06:33:05;20.70;65.30
1614;DHT22;800;48.824;9.346;2023-09-19T06:35:33;20.90;65.50
1614;DHT22;800;48.824;9.346;2023-09-19T06:38:01;20.90;65.30
1614;DHT22;800;48.824;9.346;2023-09-19T06:40:28;21.00;65.60
1614;DHT22;800;48.824;9.346;2023-09-19T06:42:56;21.20;66.30
1614;DHT22;800;48.824;9.346;2023-09-19T06:45:22;21.30;65.60
1614;DHT22;800;48.824;9.346;2023-09-19T06:47:49;21.40;65.30
1614;DHT22;800;48.824;9.346;2023-09-19T06:50:19;21.50;65.30
1614;DHT22;800;48.824;9.346;2023-09-19T06:52:47;21.70;65.20
1614;DHT22;800;48.824;9.346;2023-09-19T06:55:16;21.80;65.10
1614;DHT22;800;48.824;9.346;2023-09-19T06:57:42;21.90;64.90
1614;DHT22;800;48.824;9.346;2023-09-19T07:00:09;22.00;64.90
1614;DHT22;800;48.824;9.346;2023-09-19T07:02:41;22.10;64.80
1614;DHT22;800;48.824;9.346;2023-09-19T07:05:07;22.20;64.80
1614;DHT22;800;48.824;9.346;2023-09-19T07:07:33;22.20;64.60
1614;DHT22;800;48.824;9.346;2023-09-19T07:10:01;22.40;64.50
1614;DHT22;800;48.824;9.346;2023-09-19T07:12:26;22.50;64.60
1614;DHT22;800;48.824;9.346;2023-09-19T07:14:52;22.40;64.40
1614;DHT22;800;48.824;9.346;2023-09-19T07:17:17;22.60;64.80
1614;DHT22;800;48.824;9.346;2023-09-19T07:19:44;22.60;64.60
1614;DHT22;800;48.824;9.346;2023-09-19T07:22:10;22.70;64.10
1614;DHT22;800;48.824;9.346;2023-09-19T07:24:36;22.90;63.50
1614;DHT22;800;48.824;9.346;2023-09-19T07:27:02;23.10;63.10
1614;DHT22;800;48.824;9.346;2023-09-19T07:29:28;23.10;62.10
1614;DHT22;800;48.824;9.346;2023-09-19T07:31:53;23.30;62.50
1614;DHT22;800;48.824;9.346;2023-09-19T07:34:19;23.20;62.10
1614;DHT22;800;48.824;9.346;2023-09-19T07:36:47;23.20;62.20
1614;DHT22;800;48.824;9.346;2023-09-19T07:39:13;23.20;61.00
1614;DHT22;800;48.824;9.346;2023-09-19T07:41:38;22.80;61.60
1614;DHT22;800;48.824;9.346;2023-09-19T07:44:04;22.90;62.10
1614;DHT22;800;48.824;9.346;2023-09-19T07:46:30;22.90;61.90
1614;DHT22;800;48.824;9.346;2023-09-19T07:48:57;23.00;61.90
1614;DHT22;800;48.824;9.346;2023-09-19T07:51:22;23.10;62.20
1614;DHT22;800;48.824;9.346;2023-09-19T07:53:48;23.20;62.00
1614;DHT22;800;48.824;9.346;2023-09-19T07:56:14;23.20;62.20
1614;DHT22;800;48.824;9.346;2023-09-19T07:58:40;23.30;61.60
1614;DHT22;800;48.824;9.346;2023-09-19T08:01:09;23.50;61.30
1614;DHT22;800;48.824;9.346;2023-09-19T08:03:38;23.60;61.10
1614;DHT22;800;48.824;9.346;2023-09-19T08:06:06;23.60;59.70
1614;DHT22;800;48.824;9.346;2023-09-19T08:08:32;23.50;59.40
1614;DHT22;800;48.824;9.346;2023-09-19T08:10:59;23.30;58.90
1614;DHT22;800;48.824;9.346;2023-09-19T08:13:26;23.50;59.30
1614;DHT22;800;48.824;9.346;2023-09-19T08:15:52;23.70;59.40
1614;DHT22;800;48.824;9.346;2023-09-19T08:18:21;23.60;59.20
1614;DHT22;800;48.824;9.346;2023-09-19T08:20:52;23.50;58.90
1614;DHT22;800;48.824;9.346;2023-09-19T08:23:18;23.40;59.70
1614;DHT22;800;48.824;9.346;2023-09-19T08:25:46;23.50;59.60
1614;DHT22;800;48.824;9.346;2023-09-19T08:28:11;23.40;58.80
1614;DHT22;800;48.824;9.346;2023-09-19T08:30:47;23.60;58.90
1614;DHT22;800;48.824;9.346;2023-09-19T08:33:12;23.60;58.40
1614;DHT22;800;48.824;9.346;2023-09-19T08:35:40;23.70;58.90
1614;DHT22;800;48.824;9.346;2023-09-19T08:38:09;24.00;59.10
1614;DHT22;800;48.824;9.346;2023-09-19T08:40:39;24.20;58.50
1614;DHT22;800;48.824;9.346;2023-09-19T08:43:06;24.30;57.90
1614;DHT22;800;48.824;9.346;2023-09-19T08:45:33;24.40;56.80
1614;DHT22;800;48.824;9.346;2023-09-19T08:53:49;24.30;55.60
1614;DHT22;800;48.824;9.346;2023-09-19T08:56:17;24.40;56.00
1614;DHT22;800;48.824;9.346;2023-09-19T09:01:18;24.10;55.70
1614;DHT22;800;48.824;9.346;2023-09-19T09:03:52;24.00;56.10
1614;DHT22;800;48.824;9.346;2023-09-19T09:06:20;24.10;55.80
1614;DHT22;800;48.824;9.346;2023-09-19T09:08:46;24.00;55.80
1614;DHT22;800;48.824;9.346;2023-09-19T09:11:13;24.30;55.00
1614;DHT22;800;48.824;9.346;2023-09-19T09:13:40;24.30;55.80
1614;DHT22;800;48.824;9.346;2023-09-19T09:16:07;24.40;55.00
1614;DHT22;800;48.824;9.346;2023-09-19T09:18:33;24.30;54.70
1614;DHT22;800;48.824;9.346;2023-09-19T09:20:58;24.20;55.40
1614;DHT22;800;48.824;9.346;2023-09-19T09:25:54;24.30;54.10
1614;DHT22;800;48.824;9.346;2023-09-19T09:28:23;24.20;53.30
1614;DHT22;800;48.824;9.346;2023-09-19T09:30:49;24.40;53.30
1614;DHT22;800;48.824;9.346;2023-09-19T09:33:16;24.50;53.00
1614;DHT22;800;48.824;9.346;2023-09-19T09:35:53;24.60;52.30
1614;DHT22;800;48.824;9.346;2023-09-19T09:38:20;24.60;50.70
1614;DHT22;800;48.824;9.346;2023-09-19T09:40:50;24.40;51.50
1614;DHT22;800;48.824;9.346;2023-09-19T09:43:34;24.60;51.50
1614;DHT22;800;48.824;9.346;2023-09-19T09:48:58;24.50;50.60
1614;DHT22;800;48.824;9.346;2023-09-19T09:51:42;24.20;49.80
1614;DHT22;800;48.824;9.346;2023-09-19T09:54:13;23.90;49.50
1614;DHT22;800;48.824;9.346;2023-09-19T09:57:09;24.00;50.30
1614;DHT22;800;48.824;9.346;2023-09-19T09:59:53;24.20;49.50
1614;DHT22;800;48.824;9.346;2023-09-19T10:02:39;24.60;50.60
1614;DHT22;800;48.824;9.346;2023-09-19T10:05:17;24.80;48.00
1614;DHT22;800;48.824;9.346;2023-09-19T10:07:50;24.80;47.90
1614;DHT22;800;48.824;9.346;2023-09-19T10:10:35;25.10;49.10
1614;DHT22;800;48.824;9.346;2023-09-19T10:13:12;25.30;48.30
1614;DHT22;800;48.824;9.346;2023-09-19T10:15:39;25.50;48.30
1614;DHT22;800;48.824;9.346;2023-09-19T10:18:15;25.50;47.20
1614;DHT22;800;48.824;9.346;2023-09-19T10:20:44;25.70;46.60
1614;DHT22;800;48.824;9.346;2023-09-19T10:23:11;26.00;47.00
1614;DHT22;800;48.824;9.346;2023-09-19T10:25:43;26.30;46.70
1614;DHT22;800;48.824;9.346;2023-09-19T10:28:13;26.40;45.70
1614;DHT22;800;48.824;9.346;2023-09-19T10:30:47;26.30;45.30
1614;DHT22;800;48.824;9.346;2023-09-19T10:33:14;26.10;45.60
1614;DHT22;800;48.824;9.346;2023-09-19T10:35:43;26.10;45.70
1614;DHT22;800;48.824;9.346;2023-09-19T10:38:13;26.20;45.90
1614;DHT22;800;48.824;9.346;2023-09-19T10:40:42;26.10;45.00
1614;DHT22;800;48.824;9.346;2023-09-19T10:43:15;25.80;45.20
1614;DHT22;800;48.824;9.346;2023-09-19T10:45:44;25.70;45.00
1614;DHT22;800;48.824;9.346;2023-09-19T10:48:10;25.90;45.70
1614;DHT22;800;48.824;9.346;2023-09-19T10:53:11;25.90;45.30
1614;DHT22;800;48.824;9.346;2023-09-19T10:55:38;26.10;44.50
1614;DHT22;800;48.824;9.346;2023-09-19T10:58:05;26.10;43.90
1614;DHT22;800;48.824;9.346;2023-09-19T11:00:53;26.30;43.90
1614;DHT22;800;48.824;9.346;2023-09-19T11:03:20;26.00;42.90
1614;DHT22;800;48.824;9.346;2023-09-19T11:06:08;26.10;43.30
1614;DHT22;800;48.824;9.346;2023-09-19T11:09:03;26.40;43.80
1614;DHT22;800;48.824;9.346;2023-09-19T11:11:43;26.50;43.10
1614;DHT22;800;48.824;9.346;2023-09-19T11:14:14;26.60;43.50
1614;DHT22;800;48.824;9.346;2023-09-19T11:30:35;26.10;42.00
1614;DHT22;800;48.824;9.346;2023-09-19T11:36:10;26.10;42.30
1614;DHT22;800;48.824;9.346;2023-09-19T11:43:47;26.60;42.00
1614;DHT22;800;48.824;9.346;2023-09-19T11:46:13;26.70;41.70
1614;DHT22;800;48.824;9.346;2023-09-19T11:48:42;26.60;41.30
1614;DHT22;800;48.824;9.346;2023-09-19T11:51:11;26.60;40.80
1614;DHT22;800;48.824;9.346;2023-09-19T11:53:54;26.70;40.80
1614;DHT22;800;48.824;9.346;2023-09-19T11:56:23;27.10;40.10
1614;DHT22;800;48.824;9.346;2023-09-19T11:58:51;27.30;39.40
1614;DHT22;800;48.824;9.346;2023-09-19T12:01:29;27.20;38.30
1614;DHT22;800;48.824;9.346;2023-09-19T12:03:56;26.90;38.20
1614;DHT22;800;48.824;9.346;2023-09-19T12:06:24;26.50;39.20
1614;DHT22;800;48.824;9.346;2023-09-19T12:08:50;26.20;39.30
1614;DHT22;800;48.824;9.346;2023-09-19T12:11:19;26.20;39.60
1614;DHT22;800;48.824;9.346;2023-09-19T12:13:47;25.90;39.70
1614;DHT22;800;48.824;9.346;2023-09-19T12:16:18;25.90;40.80
1614;DHT22;800;48.824;9.346;2023-09-19T12:18:47;26.00;40.20
1614;DHT22;800;48.824;9.346;2023-09-19T12:21:25;26.30;40.70
1614;DHT22;800;48.824;9.346;2023-09-19T12:26:30;26.40;39.80
1614;DHT22;800;48.824;9.346;2023-09-19T12:29:03;26.10;39.70
1614;DHT22;800;48.824;9.346;2023-09-19T12:31:30;26.10;41.10
1614;DHT22;800;48.824;9.346;2023-09-19T12:34:02;26.20;40.70
1614;DHT22;800;48.824;9.346;2023-09-19T12:36:27;26.30;40.40
1614;DHT22;800;48.824;9.346;2023-09-19T12:38:58;26.50;41.00
1614;DHT22;800;48.824;9.346;2023-09-19T12:41:28;26.70;40.60
1614;DHT22;800;48.824;9.346;2023-09-19T12:43:54;26.80;40.40
1614;DHT22;800;48.824;9.346;2023-09-19T12:46:23;26.90;41.00
1614;DHT22;800;48.824;9.346;2023-09-19T12:49:16;27.00;40.50
1614;DHT22;800;48.824;9.346;2023-09-19T12:51:48;26.80;40.50
1614;DHT22;800;48.824;9.346;2023-09-19T12:54:15;27.00;40.90
1614;DHT22;800;48.824;9.346;2023-09-19T12:56:43;26.90;40.20
1614;DHT22;800;48.824;9.346;2023-09-19T12:59:13;26.90;40.10
1614;DHT22;800;48.824;9.346;2023-09-19T13:01:40;27.00;39.40
1614;DHT22;800;48.824;9.346;2023-09-19T13:04:19;27.00;40.10
1614;DHT22;800;48.824;9.346;2023-09-19T13:09:14;27.10;39.70
1614;DHT22;800;48.824;9.346;2023-09-19T13:11:41;27.20;39.90
1614;DHT22;800;48.824;9.346;2023-09-19T13:14:19;27.40;39.70
1614;DHT22;800;48.824;9.346;2023-09-19T13:19:42;27.20;39.30
1614;DHT22;800;48.824;9.346;2023-09-19T13:22:39;27.20;40.00
1614;DHT22;800;48.824;9.346;2023-09-19T13:38:10;28.20;38.50
1614;DHT22;800;48.824;9.346;2023-09-19T13:40:38;28.00;39.00
1614;DHT22;800;48.824;9.346;2023-09-19T13:43:05;27.90;37.80
1614;DHT22;800;48.824;9.346;2023-09-19T13:45:32;27.90;37.70
1614;DHT22;800;48.824;9.346;2023-09-19T13:47:57;27.90;38.60
1614;DHT22;800;48.824;9.346;2023-09-19T13:50:26;28.10;38.50
1614;DHT22;800;48.824;9.346;2023-09-19T13:52:54;28.40;38.20
1614;DHT22;800;48.824;9.346;2023-09-19T13:55:20;28.10;37.90
1614;DHT22;800;48.824;9.346;2023-09-19T13:57:47;28.10;38.20
1614;DHT22;800;48.824;9.346;2023-09-19T14:00:16;28.10;37.70
1614;DHT22;800;48.824;9.346;2023-09-19T14:02:41;28.20;38.20
1614;DHT22;800;48.824;9.346;2023-09-19T14:05:11;28.20;37.40
1614;DHT22;800;48.824;9.346;2023-09-19T14:07:40;28.20;37.10
1614;DHT22;800;48.824;9.346;2023-09-19T14:10:07;27.70;38.40
1614;DHT22;800;48.824;9.346;2023-09-19T14:12:39;27.90;38.90
1614;DHT22;800;48.824;9.346;2023-09-19T14:15:08;28.10;38.20
1614;DHT22;800;48.824;9.346;2023-09-19T14:17:34;28.30;38.40
1614;DHT22;800;48.824;9.346;2023-09-19T14:20:00;28.30;38.40
1614;DHT22;800;48.824;9.346;2023-09-19T14:22:25;28.50;38.30
1614;DHT22;800;48.824;9.346;2023-09-19T14:24:51;28.60;37.40
1614;DHT22;800;48.824;9.346;2023-09-19T14:27:18;28.70;37.10
1614;DHT22;800;48.824;9.346;2023-09-19T14:29:43;28.50;37.10
1614;DHT22;800;48.824;9.346;2023-09-19T14:32:09;28.30;36.80
1614;DHT22;800;48.824;9.346;2023-09-19T14:34:35;28.30;37.10
1614;DHT22;800;48.824;9.346;2023-09-19T14:37:07;28.50;36.60
1614;DHT22;800;48.824;9.346;2023-09-19T14:39:33;28.50;36.60
1614;DHT22;800;48.824;9.346;2023-09-19T14:41:58;28.60;37.00
1614;DHT22;800;48.824;9.346;2023-09-19T14:44:24;28.40;36.50
1614;DHT22;800;48.824;9.346;2023-09-19T14:46:50;28.10;36.60
1614;DHT22;800;48.824;9.346;2023-09-19T14:49:15;27.90;37.00
1614;DHT22;800;48.824;9.346;2023-09-19T14:51:42;28.00;37.00
1614;DHT22;800;48.824;9.346;2023-09-19T14:54:13;27.90;37.30
1614;DHT22;800;48.824;9.346;2023-09-19T14:56:42;27.90;37.50
1614;DHT22;800;48.824;9.346;2023-09-19T14:59:07;27.90;37.30
1614;DHT22;800;48.824;9.346;2023-09-19T15:01:36;27.70;38.20
1614;DHT22;800;48.824;9.346;2023-09-19T15:04:02;27.80;38.20
1614;DHT22;800;48.824;9.346;2023-09-19T15:06:27;27.80;38.10
1614;DHT22;800;48.824;9.346;2023-09-19T15:08:53;27.80;38.20
1614;DHT22;800;48.824;9.346;2023-09-19T15:11:19;27.50;37.50
1614;DHT22;800;48.824;9.346;2023-09-19T15:13:46;27.50;37.10
1614;DHT22;800;48.824;9.346;2023-09-19T15:16:13;27.70;37.60
1614;DHT22;800;48.824;9.346;2023-09-19T15:18:40;27.40;37.30
1614;DHT22;800;48.824;9.346;2023-09-19T15:21:08;27.50;38.30
1614;DHT22;800;48.824;9.346;2023-09-19T15:23:35;27.60;38.00
1614;DHT22;800;48.824;9.346;2023-09-19T15:26:02;27.70;37.40
1614;DHT22;800;48.824;9.346;2023-09-19T15:28:29;27.50;37.10
1614;DHT22;800;48.824;9.346;2023-09-19T15:31:07;27.30;37.20
1614;DHT22;800;48.824;9.346;2023-09-19T15:33:33;27.40;37.60
1614;DHT22;800;48.824;9.346;2023-09-19T15:36:06;27.50;37.40
1614;DHT22;800;48.824;9.346;2023-09-19T15:38:59;27.50;37.50
1614;DHT22;800;48.824;9.346;2023-09-19T15:41:27;27.60;37.30
1614;DHT22;800;48.824;9.346;2023-09-19T15:43:53;27.60;37.10
1614;DHT22;800;48.824;9.346;2023-09-19T15:46:20;27.50;37.40
1614;DHT22;800;48.824;9.346;2023-09-19T15:48:46;27.40;37.10
1614;DHT22;800;48.824;9.346;2023-09-19T15:51:12;27.60;37.60
1614;DHT22;800;48.824;9.346;2023-09-19T15:53:48;27.60;37.50
1614;DHT22;800;48.824;9.346;2023-09-19T15:56:14;27.60;37.40
1614;DHT22;800;48.824;9.346;2023-09-19T15:58:44;27.60;37.40
1614;DHT22;800;48.824;9.346;2023-09-19T16:01:10;27.60;37.60
1614;DHT22;800;48.824;9.346;2023-09-19T16:03:40;27.60;37.50
1614;DHT22;800;48.824;9.346;2023-09-19T16:06:13;27.70;37.50
1614;DHT22;800;48.824;9.346;2023-09-19T16:08:43;27.30;37.70
1614;DHT22;800;48.824;9.346;2023-09-19T16:11:10;27.30;38.00
1614;DHT22;800;48.824;9.346;2023-09-19T16:13:37;27.30;37.70
1614;DHT22;800;48.824;9.346;2023-09-19T16:16:03;27.30;38.00
1614;DHT22;800;48.824;9.346;2023-09-19T16:18:29;27.40;38.10
1614;DHT22;800;48.824;9.346;2023-09-19T16:21:03;27.60;38.00
1614;DHT22;800;48.824;9.346;2023-09-19T16:23:30;27.40;37.80
1614;DHT22;800;48.824;9.346;2023-09-19T16:26:04;27.60;38.00
1614;DHT22;800;48.824;9.346;2023-09-19T16:28:34;27.60;37.60
1614;DHT22;800;48.824;9.346;2023-09-19T16:31:02;27.60;37.90
1614;DHT22;800;48.824;9.346;2023-09-19T16:33:41;27.70;37.90
1614;DHT22;800;48.824;9.346;2023-09-19T16:36:19;27.70;37.90
1614;DHT22;800;48.824;9.346;2023-09-19T16:38:46;27.80;38.00
1614;DHT22;800;48.824;9.346;2023-09-19T16:41:13;27.80;37.90
1614;DHT22;800;48.824;9.346;2023-09-19T16:43:40;27.60;38.00
1614;DHT22;800;48.824;9.346;2023-09-19T16:46:08;27.70;38.20
1614;DHT22;800;48.824;9.346;2023-09-19T16:48:37;27.70;38.30
1614;DHT22;800;48.824;9.346;2023-09-19T16:51:08;27.80;38.20
1614;DHT22;800;48.824;9.346;2023-09-19T16:53:38;27.90;38.20
1614;DHT22;800;48.824;9.346;2023-09-19T16:56:13;27.90;38.20
1614;DHT22;800;48.824;9.346;2023-09-19T16:58:42;27.90;38.30
1614;DHT22;800;48.824;9.346;2023-09-19T17:01:12;27.90;38.40
1614;DHT22;800;48.824;9.346;2023-09-19T17:03:39;27.90;38.40
1614;DHT22;800;48.824;9.346;2023-09-19T17:06:12;28.00;38.50
1614;DHT22;800;48.824;9.346;2023-09-19T17:08:40;28.10;38.40
1614;DHT22;800;48.824;9.346;2023-09-19T17:11:07;28.10;38.30
1614;DHT22;800;48.824;9.346;2023-09-19T17:13:34;28.20;38.30
1614;DHT22;800;48.824;9.346;2023-09-19T17:16:06;28.20;38.40
1614;DHT22;800;48.824;9.346;2023-09-19T17:18:35;28.20;38.40
1614;DHT22;800;48.824;9.346;2023-09-19T17:21:02;28.20;38.50
1614;DHT22;800;48.824;9.346;2023-09-19T17:23:31;28.10;38.50
1614;DHT22;800;48.824;9.346;2023-09-19T17:28:28;28.10;39.20
1614;DHT22;800;48.824;9.346;2023-09-19T17:30:53;28.00;39.50
1614;DHT22;800;48.824;9.346;2023-09-19T17:33:20;28.00;39.80
1614;DHT22;800;48.824;9.346;2023-09-19T17:35:46;28.00;39.90
1614;DHT22;800;48.824;9.346;2023-09-19T17:38:12;28.00;40.00
1614;DHT22;800;48.824;9.346;2023-09-19T17:40:40;27.90;40.20